createdAt,value
2019-02-26T00:00:59.468Z,3.02
2019-02-26T00:03:29.251Z,2.85
2019-02-26T00:06:01.116Z,2.75
2019-02-26T00:08:31.748Z,3.10
2019-02-26T00:11:01.268Z,2.90
2019-02-26T00:13:31.918Z,2.35
2019-02-26T00:16:05.580Z,3.10
2019-02-26T00:18:32.757Z,2.72
2019-02-26T00:21:02.865Z,3.07
2019-02-26T00:23:32.619Z,2.65
2019-02-26T00:26:01.514Z,2.47
2019-02-26T00:28:30.793Z,3.00
2019-02-26T00:31:01.773Z,2.70
2019-02-26T00:33:30.984Z,2.75
2019-02-26T00:36:00.320Z,2.83
2019-02-26T00:38:30.119Z,2.65
2019-02-26T00:41:00.003Z,2.50
2019-02-26T00:43:30.646Z,2.77
2019-02-26T00:46:00.799Z,2.83
2019-02-26T00:48:31.979Z,2.37
2019-02-26T00:51:03.119Z,2.37
2019-02-26T00:53:33.064Z,2.52
2019-02-26T00:56:03.345Z,2.60
2019-02-26T00:58:36.987Z,3.10
2019-02-26T01:01:03.746Z,3.10
2019-02-26T01:03:32.949Z,2.95
2019-02-26T01:06:03.682Z,2.80
2019-02-26T01:08:32.727Z,2.83
2019-02-26T01:11:03.405Z,2.80
2019-02-26T01:13:32.471Z,3.25
2019-02-26T01:16:01.673Z,3.13
2019-02-26T01:18:30.650Z,3.20
2019-02-26T01:21:00.264Z,3.00
2019-02-26T01:23:30.428Z,2.90
2019-02-26T01:25:59.624Z,2.87
2019-02-26T01:28:29.241Z,2.50
2019-02-26T01:31:00.151Z,2.93
2019-02-26T01:33:30.211Z,3.05
2019-02-26T01:36:00.208Z,2.80
2019-02-26T01:38:30.188Z,2.40
2019-02-26T01:40:59.138Z,3.10
2019-02-26T01:43:28.135Z,2.72
2019-02-26T01:45:57.240Z,2.63
2019-02-26T01:48:26.212Z,2.40
2019-02-26T01:50:57.468Z,2.80
2019-02-26T01:53:27.324Z,2.50
2019-02-26T01:55:56.543Z,2.80
2019-02-26T01:58:25.639Z,2.70
2019-02-26T02:00:55.465Z,2.53
2019-02-26T02:03:25.514Z,2.08
2019-02-26T02:05:56.115Z,2.70
2019-02-26T02:08:25.232Z,2.55
2019-02-26T02:10:57.125Z,2.37
2019-02-26T02:13:28.340Z,2.70
2019-02-26T02:15:57.583Z,2.30
2019-02-26T02:18:29.400Z,2.47
2019-02-26T02:20:57.931Z,2.60
2019-02-26T02:23:28.105Z,2.40
2019-02-26T02:26:02.148Z,2.93
2019-02-26T02:28:31.036Z,2.83
2019-02-26T02:31:00.068Z,2.70
2019-02-26T02:33:30.094Z,2.90
2019-02-26T02:35:59.840Z,2.40
2019-02-26T02:38:28.865Z,3.05
2019-02-26T02:40:58.122Z,2.40
2019-02-26T02:43:27.207Z,2.92
2019-02-26T02:45:58.225Z,2.93
2019-02-26T02:48:27.111Z,3.00
2019-02-26T02:50:56.174Z,2.00
2019-02-26T02:53:27.438Z,2.52
2019-02-26T02:55:56.672Z,2.77
2019-02-26T02:58:26.224Z,2.47
2019-02-26T03:00:57.121Z,2.60
2019-02-26T03:03:25.939Z,3.20
2019-02-26T03:05:55.272Z,2.47
2019-02-26T03:08:24.187Z,2.67
2019-02-26T03:10:53.334Z,2.90
2019-02-26T03:13:24.864Z,2.60
2019-02-26T03:15:55.597Z,2.73
2019-02-26T03:18:23.925Z,2.85
2019-02-26T03:20:53.926Z,2.50
2019-02-26T03:23:23.786Z,2.95
2019-02-26T03:25:54.976Z,3.20
2019-02-26T03:28:23.487Z,3.10
2019-02-26T03:30:52.495Z,3.20
2019-02-26T03:33:21.559Z,2.58
2019-02-26T03:35:50.544Z,2.65
2019-02-26T03:38:20.758Z,2.52
2019-02-26T03:40:52.001Z,2.50
2019-02-26T03:43:21.064Z,2.70
2019-02-26T03:45:50.084Z,2.90
2019-02-26T03:48:20.091Z,2.72
2019-02-26T03:50:49.921Z,2.53
2019-02-26T03:53:19.377Z,2.37
2019-02-26T03:55:48.623Z,2.90
2019-02-26T03:58:17.583Z,2.08
2019-02-26T04:00:47.018Z,2.70
2019-02-26T04:03:17.452Z,2.98
2019-02-26T04:05:47.052Z,2.70
2019-02-26T04:08:18.890Z,2.85
2019-02-26T04:10:47.952Z,3.00
2019-02-26T04:13:17.971Z,2.45
2019-02-26T04:15:46.994Z,3.20
2019-02-26T04:18:15.990Z,2.58
2019-02-26T04:20:45.006Z,2.95
2019-02-26T04:23:17.180Z,2.37
2019-02-26T04:26:11.400Z,2.87
2019-02-26T04:29:03.877Z,2.60
2019-02-26T04:31:50.242Z,2.62
2019-02-26T04:34:48.617Z,3.08
2019-02-26T04:38:15.289Z,2.73
2019-02-26T04:41:19.550Z,2.53
2019-02-26T04:44:01.250Z,2.98
2019-02-26T04:47:00.215Z,2.83
2019-02-26T04:49:30.859Z,2.10
2019-02-26T04:52:02.091Z,2.77
2019-02-26T04:54:33.263Z,2.10
2019-02-26T04:57:01.904Z,2.57
2019-02-26T04:59:32.439Z,2.40
2019-02-26T05:02:01.555Z,2.40
2019-02-26T05:04:33.566Z,2.37
2019-02-26T05:07:04.364Z,2.50
2019-02-26T05:09:35.105Z,2.30
2019-02-26T05:12:03.143Z,2.30
2019-02-26T05:14:32.176Z,1.67
2019-02-26T05:17:01.653Z,2.40
2019-02-26T05:19:30.674Z,2.83
2019-02-26T05:22:01.597Z,2.30
2019-02-26T05:24:30.206Z,2.58
2019-02-26T05:26:59.152Z,2.50
2019-02-26T05:29:28.875Z,2.83
2019-02-26T05:32:00.756Z,2.47
2019-02-26T05:34:29.278Z,1.95
2019-02-26T05:36:59.914Z,2.20
2019-02-26T05:39:29.171Z,2.60
2019-02-26T05:42:00.785Z,2.63
2019-02-26T05:44:29.682Z,3.02
2019-02-26T05:46:59.359Z,2.77
2019-02-26T05:49:31.540Z,2.40
2019-02-26T05:52:01.632Z,2.57
2019-02-26T05:54:31.003Z,2.50
2019-02-26T05:57:01.892Z,2.60
2019-02-26T05:59:30.451Z,2.83
2019-02-26T06:01:59.707Z,2.52
2019-02-26T06:04:28.863Z,2.12
2019-02-26T06:06:59.206Z,2.20
2019-02-26T06:09:30.540Z,2.37
2019-02-26T06:11:59.542Z,2.30
2019-02-26T06:14:31.240Z,2.40
2019-02-26T06:16:59.207Z,2.40
2019-02-26T06:19:42.358Z,2.20
2019-02-26T06:22:17.112Z,2.07
2019-02-26T06:24:42.764Z,2.17
2019-02-26T06:27:15.443Z,2.30
2019-02-26T06:29:42.354Z,2.35
2019-02-26T06:32:13.331Z,2.42
2019-02-26T06:34:42.642Z,2.25
2019-02-26T06:37:16.995Z,2.40
2019-02-26T06:39:46.050Z,2.05
2019-02-26T06:42:15.418Z,2.33
2019-02-26T06:44:46.388Z,2.10
2019-02-26T06:47:15.572Z,2.27
2019-02-26T06:49:45.719Z,2.42
2019-02-26T06:52:16.121Z,2.25
2019-02-26T06:54:50.568Z,2.12
2019-02-26T06:57:16.463Z,2.13
2019-02-26T06:59:45.507Z,1.95
2019-02-26T07:02:14.403Z,2.27
2019-02-26T07:04:43.310Z,1.90
2019-02-26T07:07:14.365Z,2.30
2019-02-26T07:09:43.913Z,2.17
2019-02-26T07:12:14.605Z,2.10
2019-02-26T07:14:43.685Z,1.82
2019-02-26T07:17:12.572Z,2.13
2019-02-26T07:19:41.503Z,1.82
2019-02-26T07:22:11.641Z,2.30
2019-02-26T07:24:43.646Z,2.52
2019-02-26T07:27:13.952Z,2.10
2019-02-26T07:29:45.603Z,2.27
2019-02-26T07:32:14.756Z,2.13
2019-02-26T07:34:47.166Z,2.30
2019-02-26T07:37:15.830Z,1.95
2019-02-26T07:39:46.712Z,2.00
2019-02-26T07:42:18.366Z,2.27
2019-02-26T07:44:47.317Z,2.13
2019-02-26T07:47:16.288Z,2.23
2019-02-26T07:49:45.146Z,2.77
2019-02-26T07:52:14.233Z,2.30
2019-02-26T07:54:44.705Z,2.40
2019-02-26T07:57:15.829Z,2.40
2019-02-26T07:59:47.519Z,2.10
2019-02-26T08:02:16.036Z,2.23
2019-02-26T08:04:45.050Z,2.20
2019-02-26T08:07:13.915Z,1.93
2019-02-26T08:09:42.870Z,2.30
2019-02-26T08:12:13.751Z,1.80
2019-02-26T08:14:45.166Z,1.97
2019-02-26T08:17:13.697Z,1.70
2019-02-26T08:19:46.624Z,2.00
2019-02-26T08:22:13.545Z,2.27
2019-02-26T08:24:42.580Z,1.90
2019-02-26T08:27:13.426Z,1.80
2019-02-26T08:29:42.221Z,2.30
2019-02-26T08:32:13.730Z,1.77
2019-02-26T08:34:41.873Z,1.90
2019-02-26T08:37:11.447Z,1.97
2019-02-26T08:39:40.918Z,1.90
2019-02-26T08:42:11.223Z,2.00
2019-02-26T08:44:40.187Z,1.83
2019-02-26T08:47:11.399Z,1.80
2019-02-26T08:49:40.684Z,1.80
2019-02-26T08:52:10.430Z,1.93
2019-02-26T08:54:39.419Z,1.77
2019-02-26T08:57:08.344Z,1.70
2019-02-26T08:59:37.297Z,2.00
2019-02-26T09:02:06.323Z,1.70
2019-02-26T09:04:37.772Z,2.00
2019-02-26T09:07:05.962Z,1.63
2019-02-26T09:09:34.933Z,1.90
2019-02-26T09:12:03.842Z,1.60
2019-02-26T09:14:37.253Z,1.93
2019-02-26T09:17:04.523Z,1.70
2019-02-26T09:19:35.390Z,1.97
2019-02-26T09:22:05.338Z,1.60
2019-02-26T09:24:34.310Z,2.10
2019-02-26T09:27:05.001Z,2.27
2019-02-26T09:29:36.518Z,1.90
2019-02-26T09:32:07.374Z,1.90
2019-02-26T09:34:39.347Z,1.93
2019-02-26T09:37:08.014Z,1.70
2019-02-26T09:39:38.944Z,1.50
2019-02-26T09:42:09.229Z,1.50
2019-02-26T09:44:38.156Z,1.60
2019-02-26T09:47:07.560Z,2.10
2019-02-26T09:49:36.731Z,1.70
2019-02-26T09:52:06.537Z,1.83
2019-02-26T09:54:40.331Z,1.77
2019-02-26T09:57:06.822Z,1.90
2019-02-26T09:59:38.366Z,1.83
2019-02-26T10:02:06.695Z,1.50
2019-02-26T10:04:35.887Z,1.87
2019-02-26T10:07:07.400Z,1.83
2019-02-26T10:09:37.562Z,1.97
2019-02-26T10:12:07.974Z,1.90
2019-02-26T10:14:38.536Z,1.70
2019-02-26T10:17:09.210Z,1.50
2019-02-26T10:19:40.546Z,1.63
2019-02-26T10:22:13.208Z,2.00
2019-02-26T10:24:40.597Z,1.70
2019-02-26T10:27:11.565Z,1.70
2019-02-26T10:29:43.005Z,1.80
2019-02-26T10:32:11.962Z,1.90
2019-02-26T10:34:41.076Z,1.67
2019-02-26T10:37:10.118Z,1.67
2019-02-26T10:39:39.057Z,1.50
2019-02-26T10:42:08.484Z,1.40
2019-02-26T10:44:37.554Z,1.97
2019-02-26T10:47:08.728Z,1.60
2019-02-26T10:49:37.308Z,1.60
2019-02-26T10:52:06.327Z,1.60
2019-02-26T10:54:40.146Z,1.67
2019-02-26T10:57:07.671Z,1.70
2019-02-26T10:59:36.853Z,1.77
2019-02-26T11:02:06.135Z,1.80
2019-02-26T11:04:38.097Z,2.00
2019-02-26T11:07:08.840Z,1.53
2019-02-26T11:09:36.654Z,2.03
2019-02-26T11:12:08.301Z,1.90
2019-02-26T11:14:38.945Z,1.50
2019-02-26T11:17:07.095Z,1.40
2019-02-26T11:19:38.923Z,1.43
2019-02-26T11:22:06.847Z,1.33
2019-02-26T11:24:36.155Z,1.63
2019-02-26T11:27:05.440Z,1.33
2019-02-26T11:29:36.367Z,1.43
2019-02-26T11:32:07.626Z,1.33
2019-02-26T11:34:38.253Z,1.20
2019-02-26T11:37:08.806Z,1.17
2019-02-26T11:39:37.295Z,1.17
2019-02-26T11:42:06.248Z,1.20
2019-02-26T11:44:35.413Z,1.20
2019-02-26T11:47:04.338Z,1.40
2019-02-26T11:49:34.900Z,1.40
2019-02-26T11:52:04.600Z,1.33
2019-02-26T11:54:35.033Z,1.37
2019-02-26T11:57:07.434Z,1.60
2019-02-26T11:59:36.298Z,1.20
2019-02-26T12:02:06.509Z,1.53
2019-02-26T12:04:35.937Z,1.67
2019-02-26T12:07:07.421Z,1.40
2019-02-26T12:09:38.534Z,1.33
2019-02-26T12:12:09.235Z,1.67
2019-02-26T12:14:38.036Z,1.30
2019-02-26T12:17:08.055Z,1.50
2019-02-26T12:19:37.228Z,1.60
2019-02-26T12:22:06.280Z,1.40
2019-02-26T12:24:36.185Z,1.73
2019-02-26T12:27:07.350Z,1.47
2019-02-26T12:29:36.148Z,1.70
2019-02-26T12:32:05.746Z,1.50
2019-02-26T12:34:35.943Z,1.90
2019-02-26T12:37:06.600Z,2.07
2019-02-26T12:39:36.821Z,1.80
2019-02-26T12:42:07.390Z,2.13
2019-02-26T12:44:39.413Z,2.03
2019-02-26T12:47:07.691Z,1.80
2019-02-26T12:49:39.131Z,1.90
2019-02-26T12:52:07.819Z,2.17
2019-02-26T12:54:39.779Z,1.90
2019-02-26T12:57:07.883Z,2.13
2019-02-26T12:59:37.163Z,2.10
2019-02-26T13:02:09.406Z,1.83
2019-02-26T13:04:40.858Z,1.70
2019-02-26T13:07:09.455Z,2.03
2019-02-26T13:09:46.074Z,1.70
2019-02-26T13:12:11.419Z,2.03
2019-02-26T13:14:39.826Z,2.77
2019-02-26T13:17:08.771Z,2.00
2019-02-26T13:19:37.733Z,1.90
2019-02-26T13:22:09.714Z,1.67
2019-02-26T13:24:37.498Z,2.07
2019-02-26T13:27:06.507Z,2.00
2019-02-26T13:29:35.881Z,1.70
2019-02-26T13:32:08.010Z,2.00
2019-02-26T13:34:35.398Z,2.23
2019-02-26T13:37:04.748Z,2.10
2019-02-26T13:39:38.466Z,2.27
2019-02-26T13:42:10.046Z,2.07
2019-02-26T13:44:35.155Z,1.80
2019-02-26T13:47:04.163Z,2.20
2019-02-26T13:49:33.084Z,2.07
2019-02-26T13:52:02.070Z,1.53
2019-02-26T13:54:31.223Z,1.43
2019-02-26T13:57:00.404Z,1.67
2019-02-26T13:59:29.587Z,2.30
2019-02-26T14:01:58.496Z,2.10
2019-02-26T14:04:27.847Z,1.80
2019-02-26T14:06:57.076Z,1.60
2019-02-26T14:09:26.257Z,1.90
2019-02-26T14:11:55.289Z,1.80
2019-02-26T14:14:24.763Z,1.80
2019-02-26T14:16:54.034Z,1.70
2019-02-26T14:19:22.948Z,2.07
2019-02-26T14:21:52.155Z,1.77
2019-02-26T14:24:21.127Z,1.50
2019-02-26T14:26:50.372Z,1.57
2019-02-26T14:29:19.415Z,1.87
2019-02-26T14:31:48.659Z,1.87
2019-02-26T14:34:17.577Z,2.00
2019-02-26T14:36:46.496Z,2.07
2019-02-26T14:39:15.635Z,1.90
2019-02-26T14:41:44.648Z,2.20
2019-02-26T14:44:13.446Z,2.10
2019-02-26T14:46:42.644Z,1.60
2019-02-26T14:49:11.611Z,2.07
2019-02-26T14:51:40.939Z,2.10
2019-02-26T14:54:10.138Z,1.67
2019-02-26T14:56:39.016Z,1.87
2019-02-26T14:59:07.970Z,1.50
2019-02-26T15:01:36.873Z,1.57
2019-02-26T15:04:05.932Z,1.40
2019-02-26T15:06:35.160Z,1.53
2019-02-26T15:09:04.554Z,1.77
2019-02-26T15:11:33.404Z,2.17
2019-02-26T15:14:02.809Z,1.80
2019-02-26T15:16:31.814Z,1.90
2019-02-26T15:19:00.785Z,1.77
2019-02-26T15:21:30.041Z,1.90
2019-02-26T15:23:58.991Z,2.57
2019-02-26T15:26:28.098Z,2.30
2019-02-26T15:28:56.951Z,2.00
2019-02-26T15:31:25.874Z,1.80
2019-02-26T15:33:54.750Z,2.00
2019-02-26T15:36:23.666Z,1.67
2019-02-26T15:38:52.615Z,1.83
2019-02-26T15:41:21.630Z,2.10
2019-02-26T15:43:50.639Z,1.67
2019-02-26T15:46:20.116Z,1.80
2019-02-26T15:48:49.795Z,2.27
2019-02-26T15:51:20.095Z,1.80
2019-02-26T15:53:50.701Z,1.77
2019-02-26T15:56:20.947Z,2.07
2019-02-26T15:58:49.922Z,2.10
2019-02-26T16:01:19.418Z,1.97
2019-02-26T16:03:48.369Z,1.93
2019-02-26T16:06:17.737Z,2.00
2019-02-26T16:08:46.638Z,2.10
2019-02-26T16:11:15.999Z,1.70
2019-02-26T16:13:45.186Z,1.77
2019-02-26T16:16:14.075Z,2.00
2019-02-26T16:18:43.142Z,2.00
2019-02-26T16:21:12.073Z,1.93
2019-02-26T16:23:41.017Z,1.70
2019-02-26T16:26:10.187Z,1.80
2019-02-26T16:28:39.742Z,1.60
2019-02-26T16:31:09.880Z,1.80
2019-02-26T16:33:39.594Z,1.60
2019-02-26T16:36:08.929Z,1.83
2019-02-26T16:38:37.939Z,2.20
2019-02-26T16:41:06.923Z,1.60
2019-02-26T16:43:35.864Z,1.80
2019-02-26T16:46:08.317Z,2.00
2019-02-26T16:48:36.099Z,1.93
2019-02-26T16:51:05.727Z,1.80
2019-02-26T16:53:34.982Z,1.90
2019-02-26T16:56:04.303Z,2.47
2019-02-26T16:58:35.213Z,1.97
2019-02-26T17:01:05.924Z,1.67
2019-02-26T17:03:35.602Z,1.60
2019-02-26T17:06:04.581Z,1.73
2019-02-26T17:08:33.594Z,1.70
2019-02-26T17:11:02.490Z,2.13
2019-02-26T17:13:31.361Z,2.10
2019-02-26T17:16:00.674Z,1.90
2019-02-26T17:18:29.683Z,1.83
2019-02-26T17:20:58.649Z,2.00
2019-02-26T17:23:27.558Z,2.17
2019-02-26T17:26:00.187Z,2.90
2019-02-26T17:28:27.215Z,2.10
2019-02-26T17:30:57.787Z,2.83
2019-02-26T17:33:27.156Z,2.63
2019-02-26T17:35:56.101Z,2.60
2019-02-26T17:38:26.055Z,2.77
2019-02-26T17:40:55.372Z,2.80
2019-02-26T17:43:25.152Z,2.53
2019-02-26T17:45:54.327Z,2.90
2019-02-26T17:48:23.355Z,2.80
2019-02-26T17:50:52.904Z,2.60
2019-02-26T17:53:22.047Z,2.90
2019-02-26T17:55:51.011Z,2.90
2019-02-26T17:58:19.910Z,2.60
2019-02-26T18:00:52.971Z,2.53
2019-02-26T18:03:22.357Z,2.67
2019-02-26T18:05:51.869Z,2.70
2019-02-26T18:08:20.988Z,2.23
2019-02-26T18:10:50.663Z,2.67
2019-02-26T18:13:20.632Z,3.20
2019-02-26T18:15:50.437Z,2.90
2019-02-26T18:18:19.428Z,3.07
2019-02-26T18:20:48.407Z,2.70
2019-02-26T18:23:17.402Z,2.57
2019-02-26T18:25:46.458Z,2.13
2019-02-26T18:28:15.335Z,2.60
2019-02-26T18:30:44.270Z,2.47
2019-02-26T18:33:13.246Z,2.43
2019-02-26T18:35:42.339Z,2.23
2019-02-26T18:38:11.399Z,2.37
2019-02-26T18:40:40.579Z,2.20
2019-02-26T18:43:11.685Z,2.47
2019-02-26T18:45:40.196Z,2.50
2019-02-26T18:48:09.181Z,2.30
2019-02-26T18:50:39.142Z,2.50
2019-02-26T18:53:08.076Z,1.63
2019-02-26T18:55:37.076Z,1.90
2019-02-26T18:58:06.030Z,1.90
2019-02-26T19:00:34.972Z,1.60
2019-02-26T19:03:08.632Z,1.63
2019-02-26T19:05:35.642Z,2.10
2019-02-26T19:08:05.859Z,2.03
2019-02-26T19:10:35.334Z,2.43
2019-02-26T19:13:04.212Z,2.20
2019-02-26T19:15:33.282Z,2.20
2019-02-26T19:18:03.139Z,2.00
2019-02-26T19:20:32.495Z,2.50
2019-02-26T19:23:02.140Z,2.60
2019-02-26T19:25:31.397Z,2.50
2019-02-26T19:28:00.730Z,2.70
2019-02-26T19:30:29.830Z,2.47
2019-02-26T19:32:59.081Z,2.30
2019-02-26T19:35:28.014Z,2.20
2019-02-26T19:37:57.939Z,2.60
2019-02-26T19:40:32.386Z,2.00
2019-02-26T19:43:01.258Z,2.17
2019-02-26T19:45:30.326Z,2.40
2019-02-26T19:47:59.251Z,2.23
2019-02-26T19:50:28.146Z,2.20
2019-02-26T19:52:59.871Z,1.97
2019-02-26T19:55:30.312Z,2.00
2019-02-26T19:58:02.943Z,2.23
2019-02-26T20:00:29.842Z,2.40
2019-02-26T20:02:58.711Z,2.17
2019-02-26T20:05:27.513Z,2.27
2019-02-26T20:07:56.907Z,2.23
2019-02-26T20:10:26.078Z,2.87
2019-02-26T20:12:55.027Z,2.20
2019-02-26T20:15:23.986Z,2.63
2019-02-26T20:17:53.077Z,3.20
2019-02-26T20:20:22.091Z,2.80
2019-02-26T20:22:51.047Z,3.47
2019-02-26T20:25:20.505Z,2.77
2019-02-26T20:27:49.535Z,3.27
2019-02-26T20:30:20.238Z,2.33
2019-02-26T20:32:49.146Z,2.83
2019-02-26T20:35:18.367Z,2.70
2019-02-26T20:37:47.378Z,3.00
2019-02-26T20:40:17.981Z,2.90
2019-02-26T20:42:47.244Z,2.87
2019-02-26T20:45:18.172Z,2.90
2019-02-26T20:47:47.880Z,2.73
2019-02-26T20:50:19.918Z,3.10
2019-02-26T20:52:47.555Z,2.60
2019-02-26T20:55:19.256Z,3.17
2019-02-26T20:57:48.535Z,2.80
2019-02-26T21:00:18.471Z,3.03
2019-02-26T21:02:47.515Z,2.67
2019-02-26T21:05:16.752Z,3.10
2019-02-26T21:07:45.799Z,2.80
2019-02-26T21:10:16.026Z,2.97
2019-02-26T21:12:46.132Z,2.77
2019-02-26T21:15:16.594Z,3.17
2019-02-26T21:17:45.601Z,2.70
2019-02-26T21:20:14.662Z,2.57
2019-02-26T21:22:43.744Z,2.60
2019-02-26T21:25:13.066Z,2.93
2019-02-26T21:27:42.099Z,2.60
2019-02-26T21:30:13.762Z,3.23
2019-02-26T21:32:42.740Z,2.87
2019-02-26T21:35:11.840Z,2.53
2019-02-26T21:37:40.738Z,3.00
2019-02-26T21:40:10.082Z,2.50
2019-02-26T21:42:38.911Z,2.53
2019-02-26T21:45:09.751Z,2.80
2019-02-26T21:47:38.907Z,2.80
2019-02-26T21:50:08.758Z,3.07
2019-02-26T21:52:39.765Z,2.73
2019-02-26T21:55:09.632Z,2.77
2019-02-26T21:57:38.638Z,2.70
2019-02-26T22:00:12.031Z,2.60
2019-02-26T22:02:40.979Z,2.60
2019-02-26T22:05:10.027Z,2.70
2019-02-26T22:07:39.433Z,2.57
2019-02-26T22:10:10.385Z,2.53
2019-02-26T22:12:39.569Z,2.17
2019-02-26T22:15:10.925Z,2.27
2019-02-26T22:17:40.148Z,2.53
2019-02-26T22:20:21.586Z,2.70
2019-02-26T22:22:41.916Z,2.40
2019-02-26T22:25:16.063Z,2.50
2019-02-26T22:27:42.480Z,3.12
2019-02-26T22:30:14.150Z,2.92
2019-02-26T22:32:43.693Z,2.67
2019-02-26T22:35:12.831Z,2.95
2019-02-26T22:37:42.112Z,2.87
2019-02-26T22:40:11.394Z,2.70
2019-02-26T22:42:41.754Z,2.55
2019-02-26T22:45:11.246Z,2.23
2019-02-26T22:47:41.112Z,2.83
2019-02-26T22:50:11.499Z,2.52
2019-02-26T22:52:40.434Z,2.60
2019-02-26T22:55:09.891Z,2.83
2019-02-26T22:57:38.939Z,2.65
2019-02-26T23:00:48.281Z,2.47
2019-02-26T23:03:14.705Z,2.17
2019-02-26T23:05:43.716Z,2.30
2019-02-26T23:08:12.824Z,2.30
2019-02-26T23:10:42.044Z,2.03
2019-02-26T23:13:11.335Z,2.90
2019-02-26T23:15:45.193Z,2.90
2019-02-26T23:18:11.604Z,2.90
2019-02-26T23:20:42.555Z,2.72
2019-02-26T23:23:11.315Z,2.85
2019-02-26T23:25:40.333Z,2.50
2019-02-26T23:28:09.246Z,2.77
2019-02-26T23:34:06.855Z,2.40
2019-02-26T23:36:35.760Z,2.43
2019-02-26T23:39:06.894Z,2.77
2019-02-26T23:41:35.860Z,2.30
2019-02-26T23:44:05.398Z,2.33
2019-02-26T23:46:34.419Z,2.40
2019-02-26T23:49:03.520Z,2.20
2019-02-26T23:51:32.487Z,2.20
2019-02-26T23:54:01.470Z,2.47
2019-02-26T23:56:30.338Z,2.65
2019-02-26T23:59:01.684Z,2.37
